sensor_id;sensor_type;location;lat;lon;timestamp;pressure;altitude;pressure_sealevel;temperature;humidity
70758;BME280;59316;52.964;7.102;2023-04-23T00:02:44;100723.00;;;9.58;nan
70758;BME280;59316;52.964;7.102;2023-04-23T00:08:06;100725.22;;;9.49;nan
70758;BME280;59316;52.964;7.102;2023-04-23T00:13:28;100728.75;;;9.48;nan
70758;BME280;59316;52.964;7.102;2023-04-23T00:18:50;100731.28;;;9.50;nan
70758;BME280;59316;52.964;7.102;2023-04-23T00:24:12;100724.56;;;9.46;nan
70758;BME280;59316;52.964;7.102;2023-04-23T00:29:33;100726.25;;;9.47;nan
70758;BME280;59316;52.964;7.102;2023-04-23T00:34:55;100720.13;;;9.32;nan
70758;BME280;59316;52.964;7.102;2023-04-23T00:40:16;100705.91;;;9.21;nan
70758;BME280;59316;52.964;7.102;2023-04-23T00:45:38;100716.84;;;9.28;nan
70758;BME280;59316;52.964;7.102;2023-04-23T00:51:02;100723.47;;;9.34;nan
70758;BME280;59316;52.964;7.102;2023-04-23T00:56:25;100708.13;;;9.44;nan
70758;BME280;59316;52.964;7.102;2023-04-23T01:01:48;100718.63;;;9.58;nan
70758;BME280;59316;52.964;7.102;2023-04-23T01:07:12;100715.28;;;9.56;nan
70758;BME280;59316;52.964;7.102;2023-04-23T01:12:35;100721.28;;;9.42;nan
70758;BME280;59316;52.964;7.102;2023-04-23T01:17:57;100716.28;;;9.53;nan
70758;BME280;59316;52.964;7.102;2023-04-23T01:23:18;100712.19;;;9.49;nan
70758;BME280;59316;52.964;7.102;2023-04-23T01:28:41;100710.88;;;9.57;nan
70758;BME280;59316;52.964;7.102;2023-04-23T01:34:04;100725.38;;;9.62;nan
70758;BME280;59316;52.964;7.102;2023-04-23T01:39:25;100718.34;;;9.63;nan
70758;BME280;59316;52.964;7.102;2023-04-23T01:44:47;100708.56;;;9.52;nan
70758;BME280;59316;52.964;7.102;2023-04-23T01:50:09;100709.16;;;9.41;nan
70758;BME280;59316;52.964;7.102;2023-04-23T01:55:30;100711.22;;;9.20;nan
70758;BME280;59316;52.964;7.102;2023-04-23T02:00:53;100715.50;;;9.05;nan
70758;BME280;59316;52.964;7.102;2023-04-23T02:06:15;100714.84;;;8.85;nan
70758;BME280;59316;52.964;7.102;2023-04-23T02:11:37;100714.66;;;9.04;nan
70758;BME280;59316;52.964;7.102;2023-04-23T02:16:59;100716.34;;;9.21;nan
70758;BME280;59316;52.964;7.102;2023-04-23T02:22:21;100711.84;;;9.24;nan
70758;BME280;59316;52.964;7.102;2023-04-23T02:27:43;100704.91;;;9.08;nan
70758;BME280;59316;52.964;7.102;2023-04-23T02:33:05;100709.94;;;8.95;nan
70758;BME280;59316;52.964;7.102;2023-04-23T02:38:26;100710.59;;;8.83;nan
70758;BME280;59316;52.964;7.102;2023-04-23T02:43:48;100705.16;;;8.71;nan
70758;BME280;59316;52.964;7.102;2023-04-23T02:49:09;100700.69;;;8.58;nan
70758;BME280;59316;52.964;7.102;2023-04-23T02:54:31;100701.50;;;8.42;nan
70758;BME280;59316;52.964;7.102;2023-04-23T02:59:53;100700.25;;;8.16;nan
70758;BME280;59316;52.964;7.102;2023-04-23T03:05:21;100707.22;;;7.98;nan
70758;BME280;59316;52.964;7.102;2023-04-23T03:10:43;100701.31;;;7.77;nan
70758;BME280;59316;52.964;7.102;2023-04-23T03:16:05;100697.19;;;7.55;nan
70758;BME280;59316;52.964;7.102;2023-04-23T03:21:28;100699.88;;;7.36;nan
70758;BME280;59316;52.964;7.102;2023-04-23T03:26:49;100691.97;;;7.20;nan
70758;BME280;59316;52.964;7.102;2023-04-23T03:32:11;100693.09;;;7.14;nan
70758;BME280;59316;52.964;7.102;2023-04-23T03:37:33;100686.22;;;7.13;nan
70758;BME280;59316;52.964;7.102;2023-04-23T03:42:56;100677.78;;;7.08;nan
70758;BME280;59316;52.964;7.102;2023-04-23T03:48:35;100657.44;;;6.99;nan
70758;BME280;59316;52.964;7.102;2023-04-23T03:54:01;100665.50;;;7.29;nan
70758;BME280;59316;52.964;7.102;2023-04-23T03:59:53;100656.25;;;7.41;nan
70758;BME280;59316;52.964;7.102;2023-04-23T04:05:16;100664.69;;;7.46;nan
70758;BME280;59316;52.964;7.102;2023-04-23T04:10:38;100657.25;;;7.38;nan
70758;BME280;59316;52.964;7.102;2023-04-23T04:16:00;100656.72;;;7.49;nan
70758;BME280;59316;52.964;7.102;2023-04-23T04:21:21;100656.88;;;7.99;nan
70758;BME280;59316;52.964;7.102;2023-04-23T04:26:43;100646.50;;;8.31;nan
70758;BME280;59316;52.964;7.102;2023-04-23T04:32:07;100644.34;;;8.55;nan
70758;BME280;59316;52.964;7.102;2023-04-23T04:37:28;100649.47;;;8.72;nan
70758;BME280;59316;52.964;7.102;2023-04-23T04:42:50;100654.25;;;8.80;nan
70758;BME280;59316;52.964;7.102;2023-04-23T04:48:12;100654.16;;;8.98;nan
70758;BME280;59316;52.964;7.102;2023-04-23T04:53:33;100656.19;;;9.09;nan
70758;BME280;59316;52.964;7.102;2023-04-23T04:58:55;100650.34;;;9.19;nan
70758;BME280;59316;52.964;7.102;2023-04-23T05:04:16;100648.16;;;9.28;nan
70758;BME280;59316;52.964;7.102;2023-04-23T05:09:38;100652.41;;;9.29;nan
70758;BME280;59316;52.964;7.102;2023-04-23T05:15:01;100656.13;;;9.41;nan
70758;BME280;59316;52.964;7.102;2023-04-23T05:20:22;100643.44;;;9.49;nan
70758;BME280;59316;52.964;7.102;2023-04-23T05:25:44;100638.44;;;9.60;nan
70758;BME280;59316;52.964;7.102;2023-04-23T05:31:05;100646.84;;;9.65;nan
70758;BME280;59316;52.964;7.102;2023-04-23T05:36:27;100648.81;;;9.76;nan
70758;BME280;59316;52.964;7.102;2023-04-23T05:41:48;100653.41;;;9.87;nan
70758;BME280;59316;52.964;7.102;2023-04-23T05:47:12;100652.88;;;10.25;nan
70758;BME280;59316;52.964;7.102;2023-04-23T05:52:33;100642.59;;;10.51;nan
70758;BME280;59316;52.964;7.102;2023-04-23T05:57:55;100635.94;;;10.60;nan
70758;BME280;59316;52.964;7.102;2023-04-23T06:03:16;100634.47;;;10.56;nan
70758;BME280;59316;52.964;7.102;2023-04-23T06:08:38;100639.28;;;10.62;nan
70758;BME280;59316;52.964;7.102;2023-04-23T06:14:01;100623.22;;;10.68;nan
70758;BME280;59316;52.964;7.102;2023-04-23T06:19:22;100621.13;;;10.88;nan
70758;BME280;59316;52.964;7.102;2023-04-23T06:24:44;100617.94;;;11.10;nan
70758;BME280;59316;52.964;7.102;2023-04-23T06:30:06;100622.34;;;11.09;nan
70758;BME280;59316;52.964;7.102;2023-04-23T06:35:29;100618.59;;;11.26;nan
70758;BME280;59316;52.964;7.102;2023-04-23T06:40:50;100613.50;;;11.50;nan
70758;BME280;59316;52.964;7.102;2023-04-23T06:46:12;100599.22;;;12.06;nan
70758;BME280;59316;52.964;7.102;2023-04-23T06:51:33;100593.78;;;12.59;nan
70758;BME280;59316;52.964;7.102;2023-04-23T06:56:55;100590.22;;;13.09;nan
70758;BME280;59316;52.964;7.102;2023-04-23T07:02:17;100585.88;;;13.43;nan
70758;BME280;59316;52.964;7.102;2023-04-23T07:07:38;100575.06;;;13.93;nan
70758;BME280;59316;52.964;7.102;2023-04-23T07:13:00;100566.59;;;14.24;nan
70758;BME280;59316;52.964;7.102;2023-04-23T07:18:21;100574.94;;;14.29;nan
70758;BME280;59316;52.964;7.102;2023-04-23T07:23:43;100574.22;;;14.71;nan
70758;BME280;59316;52.964;7.102;2023-04-23T07:29:04;100567.59;;;14.88;nan
70758;BME280;59316;52.964;7.102;2023-04-23T07:34:26;100558.69;;;14.68;nan
70758;BME280;59316;52.964;7.102;2023-04-23T07:39:48;100557.56;;;14.82;nan
70758;BME280;59316;52.964;7.102;2023-04-23T07:45:09;100540.13;;;15.44;nan
70758;BME280;59316;52.964;7.102;2023-04-23T07:50:31;100543.00;;;15.62;nan
70758;BME280;59316;52.964;7.102;2023-04-23T07:55:56;100533.84;;;15.66;nan
70758;BME280;59316;52.964;7.102;2023-04-23T08:01:17;100525.50;;;16.02;nan
70758;BME280;59316;52.964;7.102;2023-04-23T08:06:39;100532.22;;;16.16;nan
70758;BME280;59316;52.964;7.102;2023-04-23T08:12:00;100528.97;;;16.02;nan
70758;BME280;59316;52.964;7.102;2023-04-23T08:17:22;100535.16;;;15.30;nan
70758;BME280;59316;52.964;7.102;2023-04-23T08:22:43;100521.34;;;15.37;nan
70758;BME280;59316;52.964;7.102;2023-04-23T08:28:05;100520.91;;;16.04;nan
70758;BME280;59316;52.964;7.102;2023-04-23T08:33:27;100521.28;;;16.40;nan
70758;BME280;59316;52.964;7.102;2023-04-23T08:38:48;100518.81;;;17.45;nan
70758;BME280;59316;52.964;7.102;2023-04-23T08:44:18;100508.66;;;18.33;nan
70758;BME280;59316;52.964;7.102;2023-04-23T08:49:44;100514.94;;;17.77;nan
70758;BME280;59316;52.964;7.102;2023-04-23T08:55:08;100511.75;;;18.29;nan
70758;BME280;59316;52.964;7.102;2023-04-23T09:00:30;100514.75;;;17.60;nan
70758;BME280;59316;52.964;7.102;2023-04-23T09:05:51;100512.13;;;18.34;nan
70758;BME280;59316;52.964;7.102;2023-04-23T09:11:14;100509.69;;;19.13;nan
70758;BME280;59316;52.964;7.102;2023-04-23T09:16:35;100507.91;;;19.22;nan
70758;BME280;59316;52.964;7.102;2023-04-23T09:21:58;100505.28;;;19.30;nan
70758;BME280;59316;52.964;7.102;2023-04-23T09:27:22;100505.38;;;19.81;nan
70758;BME280;59316;52.964;7.102;2023-04-23T09:32:44;100496.94;;;20.37;nan
70758;BME280;59316;52.964;7.102;2023-04-23T09:38:06;100508.75;;;20.67;nan
70758;BME280;59316;52.964;7.102;2023-04-23T09:43:29;100515.69;;;20.84;nan
70758;BME280;59316;52.964;7.102;2023-04-23T09:48:50;100499.22;;;21.30;nan
70758;BME280;59316;52.964;7.102;2023-04-23T09:54:20;100490.06;;;21.33;nan
70758;BME280;59316;52.964;7.102;2023-04-23T09:59:42;100488.41;;;21.80;nan
70758;BME280;59316;52.964;7.102;2023-04-23T10:05:18;100484.63;;;22.06;nan
70758;BME280;59316;52.964;7.102;2023-04-23T10:10:46;100480.28;;;21.34;nan
70758;BME280;59316;52.964;7.102;2023-04-23T10:16:10;100482.59;;;20.05;nan
70758;BME280;59316;52.964;7.102;2023-04-23T10:21:43;100483.84;;;20.93;nan
70758;BME280;59316;52.964;7.102;2023-04-23T10:27:14;100477.00;;;20.41;nan
70758;BME280;59316;52.964;7.102;2023-04-23T10:32:52;100472.84;;;20.79;nan
70758;BME280;59316;52.964;7.102;2023-04-23T10:38:15;100469.28;;;21.37;nan
70758;BME280;59316;52.964;7.102;2023-04-23T10:43:37;100470.38;;;20.94;nan
70758;BME280;59316;52.964;7.102;2023-04-23T10:54:33;100449.72;;;22.24;nan
70758;BME280;59316;52.964;7.102;2023-04-23T10:59:55;100449.91;;;22.45;nan
70758;BME280;59316;52.964;7.102;2023-04-23T11:05:17;100444.28;;;21.94;nan
70758;BME280;59316;52.964;7.102;2023-04-23T11:10:55;100448.28;;;20.69;nan
70758;BME280;59316;52.964;7.102;2023-04-23T11:16:22;100439.66;;;21.88;nan
70758;BME280;59316;52.964;7.102;2023-04-23T11:27:26;100436.59;;;22.84;nan
70758;BME280;59316;52.964;7.102;2023-04-23T11:32:51;100426.13;;;23.57;nan
70758;BME280;59316;52.964;7.102;2023-04-23T11:38:14;100421.63;;;24.37;nan
70758;BME280;59316;52.964;7.102;2023-04-23T11:43:36;100436.72;;;25.44;nan
70758;BME280;59316;52.964;7.102;2023-04-23T11:49:00;100414.09;;;25.46;nan
70758;BME280;59316;52.964;7.102;2023-04-23T11:54:24;100405.72;;;24.51;nan
70758;BME280;59316;52.964;7.102;2023-04-23T11:59:47;100406.94;;;23.68;nan
70758;BME280;59316;52.964;7.102;2023-04-23T12:05:09;100404.22;;;23.32;nan
70758;BME280;59316;52.964;7.102;2023-04-23T12:10:30;100410.75;;;23.44;nan
70758;BME280;59316;52.964;7.102;2023-04-23T12:16:00;100411.78;;;22.45;nan
70758;BME280;59316;52.964;7.102;2023-04-23T12:21:23;100400.91;;;21.85;nan
70758;BME280;59316;52.964;7.102;2023-04-23T12:26:51;100387.25;;;22.35;nan
70758;BME280;59316;52.964;7.102;2023-04-23T12:32:14;100383.59;;;21.58;nan
70758;BME280;59316;52.964;7.102;2023-04-23T12:37:36;100395.63;;;22.46;nan
70758;BME280;59316;52.964;7.102;2023-04-23T12:42:57;100384.97;;;24.09;nan
70758;BME280;59316;52.964;7.102;2023-04-23T12:48:18;100372.53;;;23.95;nan
70758;BME280;59316;52.964;7.102;2023-04-23T12:53:40;100366.97;;;23.38;nan
70758;BME280;59316;52.964;7.102;2023-04-23T12:59:01;100355.81;;;23.50;nan
70758;BME280;59316;52.964;7.102;2023-04-23T13:04:23;100360.31;;;22.83;nan
70758;BME280;59316;52.964;7.102;2023-04-23T13:09:45;100347.31;;;22.94;nan
70758;BME280;59316;52.964;7.102;2023-04-23T13:15:07;100336.56;;;22.58;nan
70758;BME280;59316;52.964;7.102;2023-04-23T13:20:29;100324.78;;;22.52;nan
70758;BME280;59316;52.964;7.102;2023-04-23T13:25:50;100330.22;;;22.44;nan
70758;BME280;59316;52.964;7.102;2023-04-23T13:31:12;100308.53;;;22.09;nan
70758;BME280;59316;52.964;7.102;2023-04-23T13:36:33;100305.97;;;22.01;nan
70758;BME280;59316;52.964;7.102;2023-04-23T13:41:55;100288.28;;;22.23;nan
70758;BME280;59316;52.964;7.102;2023-04-23T13:47:28;100290.09;;;22.07;nan
70758;BME280;59316;52.964;7.102;2023-04-23T13:52:50;100274.25;;;22.44;nan
70758;BME280;59316;52.964;7.102;2023-04-23T13:58:12;100272.22;;;22.46;nan
70758;BME280;59316;52.964;7.102;2023-04-23T14:03:33;100257.16;;;22.53;nan
70758;BME280;59316;52.964;7.102;2023-04-23T14:08:55;100254.28;;;23.00;nan
70758;BME280;59316;52.964;7.102;2023-04-23T14:14:17;100248.16;;;22.84;nan
70758;BME280;59316;52.964;7.102;2023-04-23T14:19:38;100235.84;;;22.38;nan
70758;BME280;59316;52.964;7.102;2023-04-23T14:25:08;100237.41;;;22.33;nan
70758;BME280;59316;52.964;7.102;2023-04-23T14:30:30;100235.22;;;22.36;nan
70758;BME280;59316;52.964;7.102;2023-04-23T14:35:51;100233.03;;;22.40;nan
70758;BME280;59316;52.964;7.102;2023-04-23T14:41:13;100228.59;;;22.17;nan
70758;BME280;59316;52.964;7.102;2023-04-23T14:46:34;100220.50;;;22.25;nan
70758;BME280;59316;52.964;7.102;2023-04-23T14:51:56;100225.06;;;21.87;nan
70758;BME280;59316;52.964;7.102;2023-04-23T14:57:17;100215.53;;;21.69;nan
70758;BME280;59316;52.964;7.102;2023-04-23T15:02:39;100211.63;;;21.80;nan
70758;BME280;59316;52.964;7.102;2023-04-23T15:08:01;100209.06;;;21.48;nan
70758;BME280;59316;52.964;7.102;2023-04-23T15:18:57;100200.41;;;20.21;nan
70758;BME280;59316;52.964;7.102;2023-04-23T15:24:22;100193.50;;;20.03;nan
70758;BME280;59316;52.964;7.102;2023-04-23T15:29:44;100179.16;;;20.29;nan
70758;BME280;59316;52.964;7.102;2023-04-23T15:35:06;100166.28;;;20.49;nan
70758;BME280;59316;52.964;7.102;2023-04-23T15:40:27;100175.47;;;20.30;nan
70758;BME280;59316;52.964;7.102;2023-04-23T15:45:49;100177.41;;;19.96;nan
70758;BME280;59316;52.964;7.102;2023-04-23T15:51:11;100166.94;;;19.78;nan
70758;BME280;59316;52.964;7.102;2023-04-23T15:56:33;100166.97;;;19.95;nan
70758;BME280;59316;52.964;7.102;2023-04-23T16:01:55;100141.81;;;20.22;nan
70758;BME280;59316;52.964;7.102;2023-04-23T16:07:17;100142.78;;;20.38;nan
70758;BME280;59316;52.964;7.102;2023-04-23T16:12:39;100129.06;;;20.17;nan
70758;BME280;59316;52.964;7.102;2023-04-23T16:18:00;100125.75;;;20.15;nan
70758;BME280;59316;52.964;7.102;2023-04-23T16:23:22;100112.22;;;20.02;nan
70758;BME280;59316;52.964;7.102;2023-04-23T16:28:44;100118.88;;;19.73;nan
70758;BME280;59316;52.964;7.102;2023-04-23T16:34:11;100129.38;;;18.49;nan
70758;BME280;59316;52.964;7.102;2023-04-23T16:39:33;100148.13;;;17.24;nan
70758;BME280;59316;52.964;7.102;2023-04-23T16:44:54;100187.84;;;15.64;nan
70758;BME280;59316;52.964;7.102;2023-04-23T16:50:16;100148.19;;;15.26;nan
70758;BME280;59316;52.964;7.102;2023-04-23T16:55:37;100157.31;;;14.83;nan
70758;BME280;59316;52.964;7.102;2023-04-23T17:00:59;100145.75;;;14.55;nan
70758;BME280;59316;52.964;7.102;2023-04-23T17:11:47;100136.81;;;14.36;nan
70758;BME280;59316;52.964;7.102;2023-04-23T17:17:08;100129.34;;;14.32;nan
70758;BME280;59316;52.964;7.102;2023-04-23T17:22:29;100118.50;;;14.25;nan
70758;BME280;59316;52.964;7.102;2023-04-23T17:27:51;100108.34;;;14.10;nan
70758;BME280;59316;52.964;7.102;2023-04-23T17:33:13;100093.78;;;13.96;nan
70758;BME280;59316;52.964;7.102;2023-04-23T17:38:34;100105.47;;;13.92;nan
70758;BME280;59316;52.964;7.102;2023-04-23T17:43:56;100101.69;;;13.85;nan
70758;BME280;59316;52.964;7.102;2023-04-23T17:49:17;100091.09;;;13.87;nan
70758;BME280;59316;52.964;7.102;2023-04-23T17:54:39;100073.88;;;13.83;nan
70758;BME280;59316;52.964;7.102;2023-04-23T18:00:01;100061.75;;;13.82;nan
70758;BME280;59316;52.964;7.102;2023-04-23T18:05:31;100058.16;;;13.92;nan
70758;BME280;59316;52.964;7.102;2023-04-23T18:10:52;100053.56;;;13.85;nan
70758;BME280;59316;52.964;7.102;2023-04-23T18:16:14;100056.28;;;13.73;nan
70758;BME280;59316;52.964;7.102;2023-04-23T18:21:35;100110.00;;;13.59;nan
70758;BME280;59316;52.964;7.102;2023-04-23T18:26:57;100118.63;;;13.29;nan
70758;BME280;59316;52.964;7.102;2023-04-23T18:32:18;100154.59;;;12.96;nan
70758;BME280;59316;52.964;7.102;2023-04-23T18:37:59;100164.25;;;12.84;nan
70758;BME280;59316;52.964;7.102;2023-04-23T18:43:24;100145.81;;;12.74;nan
70758;BME280;59316;52.964;7.102;2023-04-23T18:54:40;100125.66;;;12.63;nan
70758;BME280;59316;52.964;7.102;2023-04-23T19:00:02;100111.25;;;12.69;nan
70758;BME280;59316;52.964;7.102;2023-04-23T19:05:24;100108.66;;;12.58;nan
70758;BME280;59316;52.964;7.102;2023-04-23T19:10:45;100094.69;;;12.46;nan
70758;BME280;59316;52.964;7.102;2023-04-23T19:16:07;100092.66;;;12.49;nan
70758;BME280;59316;52.964;7.102;2023-04-23T19:21:29;100084.31;;;12.56;nan
70758;BME280;59316;52.964;7.102;2023-04-23T19:26:50;100081.53;;;12.69;nan
70758;BME280;59316;52.964;7.102;2023-04-23T19:32:12;100068.88;;;12.74;nan
70758;BME280;59316;52.964;7.102;2023-04-23T19:37:33;100078.78;;;12.70;nan
70758;BME280;59316;52.964;7.102;2023-04-23T19:42:55;100063.50;;;12.75;nan
70758;BME280;59316;52.964;7.102;2023-04-23T19:48:16;100058.38;;;12.74;nan
70758;BME280;59316;52.964;7.102;2023-04-23T19:53:38;100049.94;;;12.70;nan
70758;BME280;59316;52.964;7.102;2023-04-23T19:58:59;100036.72;;;12.72;nan
70758;BME280;59316;52.964;7.102;2023-04-23T20:04:21;100040.97;;;12.73;nan
70758;BME280;59316;52.964;7.102;2023-04-23T20:09:42;100036.25;;;12.67;nan
70758;BME280;59316;52.964;7.102;2023-04-23T20:15:08;100030.28;;;12.64;nan
70758;BME280;59316;52.964;7.102;2023-04-23T20:20:30;100011.22;;;12.62;nan
70758;BME280;59316;52.964;7.102;2023-04-23T20:25:52;100017.94;;;12.55;nan
70758;BME280;59316;52.964;7.102;2023-04-23T20:31:13;100015.03;;;12.58;nan
70758;BME280;59316;52.964;7.102;2023-04-23T20:36:35;100005.63;;;12.56;nan
70758;BME280;59316;52.964;7.102;2023-04-23T20:41:57;99989.53;;;12.60;nan
70758;BME280;59316;52.964;7.102;2023-04-23T20:47:18;99986.31;;;12.57;nan
70758;BME280;59316;52.964;7.102;2023-04-23T20:52:40;99976.56;;;12.59;nan
70758;BME280;59316;52.964;7.102;2023-04-23T20:58:01;99959.34;;;12.66;nan
70758;BME280;59316;52.964;7.102;2023-04-23T21:03:23;99944.03;;;12.71;nan
70758;BME280;59316;52.964;7.102;2023-04-23T21:08:45;99915.13;;;12.82;nan
70758;BME280;59316;52.964;7.102;2023-04-23T21:14:06;99906.56;;;12.59;nan
70758;BME280;59316;52.964;7.102;2023-04-23T21:19:28;99901.19;;;12.61;nan
70758;BME280;59316;52.964;7.102;2023-04-23T21:24:50;99880.59;;;12.56;nan
70758;BME280;59316;52.964;7.102;2023-04-23T21:30:20;99856.84;;;12.58;nan
70758;BME280;59316;52.964;7.102;2023-04-23T21:36:00;99854.53;;;12.64;nan
70758;BME280;59316;52.964;7.102;2023-04-23T21:41:23;99837.84;;;12.44;nan
70758;BME280;59316;52.964;7.102;2023-04-23T21:46:44;99834.28;;;12.45;nan
70758;BME280;59316;52.964;7.102;2023-04-23T21:52:06;99837.72;;;12.46;nan
70758;BME280;59316;52.964;7.102;2023-04-23T21:57:27;99836.44;;;12.40;nan
70758;BME280;59316;52.964;7.102;2023-04-23T22:02:49;99826.78;;;12.41;nan
70758;BME280;59316;52.964;7.102;2023-04-23T22:08:11;99811.91;;;12.41;nan
70758;BME280;59316;52.964;7.102;2023-04-23T22:13:33;99803.25;;;12.29;nan
70758;BME280;59316;52.964;7.102;2023-04-23T22:18:58;99802.09;;;12.43;nan
70758;BME280;59316;52.964;7.102;2023-04-23T22:24:19;99788.97;;;12.43;nan
70758;BME280;59316;52.964;7.102;2023-04-23T22:29:41;99788.31;;;12.41;nan
70758;BME280;59316;52.964;7.102;2023-04-23T22:35:04;99784.72;;;12.42;nan
70758;BME280;59316;52.964;7.102;2023-04-23T22:40:26;99771.84;;;12.39;nan
70758;BME280;59316;52.964;7.102;2023-04-23T22:45:47;99760.91;;;12.34;nan
70758;BME280;59316;52.964;7.102;2023-04-23T22:51:12;99750.75;;;12.41;nan
70758;BME280;59316;52.964;7.102;2023-04-23T22:56:34;99752.19;;;12.55;nan
70758;BME280;59316;52.964;7.102;2023-04-23T23:01:55;99750.00;;;12.60;nan
70758;BME280;59316;52.964;7.102;2023-04-23T23:07:17;99752.31;;;12.74;nan
70758;BME280;59316;52.964;7.102;2023-04-23T23:12:38;99736.31;;;12.87;nan
70758;BME280;59316;52.964;7.102;2023-04-23T23:18:00;99734.03;;;12.73;nan
70758;BME280;59316;52.964;7.102;2023-04-23T23:23:22;99730.91;;;12.48;nan
70758;BME280;59316;52.964;7.102;2023-04-23T23:28:43;99730.34;;;12.23;nan
70758;BME280;59316;52.964;7.102;2023-04-23T23:34:05;99718.59;;;11.75;nan
70758;BME280;59316;52.964;7.102;2023-04-23T23:39:26;99723.91;;;11.52;nan
70758;BME280;59316;52.964;7.102;2023-04-23T23:44:48;99722.94;;;11.65;nan
70758;BME280;59316;52.964;7.102;2023-04-23T23:50:09;99714.16;;;11.55;nan
70758;BME280;59316;52.964;7.102;2023-04-23T23:55:31;99710.50;;;11.46;nan
